ADDS TAF Data INFO
IDs: Format: Raw Decoded Include METARs

Data at: 0026 UTC 23 Jun 2018

KFMN 222353Z 29019G33KT 10SM CLR 33/M13 A2990 RMK AO2 PK WND 28034/2343 SLP059 T03331128 10350 20306 56016

KFMN 222332Z 2300/2324 29018G28KT P6SM SKC
  FM230200 32011KT P6SM SKC
  FM230500 35005KT P6SM SKC
  FM231200 10007KT P6SM SKC
  FM231700 27011G18KT P6SM SKC